Time;durP1;ratioP1;P1;durP2;ratioP2;P2;SDS_P1;SDS_P2;PMS_P1;PMS_P2;Temp;Humidity;BMP_temperature;BMP_pressure;BME280_temperature;BME280_humidity;BME280_pressure;Samples;Min_cycle;Max_cycle;Signal;HPM_P1;HPM_P2
2024/01/20 00:01:27;;;;;;;28.17;14.25;;;;;;;-144.05;78.23;57110.09;5093210;28;20055;-78
2024/01/20 00:03:53;;;;;;;31.00;13.45;;;;;;;-144.05;78.03;57099.47;5092827;28;20133;-79
2024/01/20 00:06:20;;;;;;;33.53;14.88;;;;;;;-144.05;77.74;57122.84;5092977;28;20568;-79
2024/01/20 00:08:46;;;;;;;29.80;14.07;;;;;;;-144.05;76.73;57116.47;5092411;28;20035;-77
2024/01/20 00:11:13;;;;;;;25.98;12.43;;;;;;;-144.05;76.60;57099.47;5091498;28;20430;-78
2024/01/20 00:13:39;;;;;;;26.38;13.35;;;;;;;-144.05;76.95;57078.22;5092788;28;20029;-77
2024/01/20 00:16:09;;;;;;;34.85;12.55;;;;;;;-144.05;76.97;57110.09;5087765;28;20055;-78
2024/01/20 00:18:36;;;;;;;28.33;13.23;;;-0.40;99.90;;;-144.05;76.79;57116.47;5112254;28;20031;-77
2024/01/20 00:21:03;;;;;;;20.25;11.93;;;;;;;-144.05;76.48;57103.72;5092631;28;20046;-76
2024/01/20 00:23:29;;;;;;;25.77;12.10;;;;;;;-144.05;76.63;57124.97;5092436;28;20097;-78
2024/01/20 00:25:55;;;;;;;28.50;11.48;;;;;;;-144.05;76.04;57120.72;5090616;28;20024;-78
2024/01/20 00:28:21;;;;;;;23.52;11.32;;;;;;;-144.05;76.19;57116.47;5092216;28;20024;-78
2024/01/20 00:30:48;;;;;;;21.30;11.63;;;;;;;-144.05;76.41;57129.22;5092378;28;20462;-78
2024/01/20 00:33:14;;;;;;;24.48;10.13;;;;;;;-144.05;75.94;57103.72;5092187;28;20088;-79
2024/01/20 00:35:44;;;;;;;17.33;10.02;;;;;;;-144.05;76.32;57116.47;5090746;28;20527;-78
2024/01/20 00:38:11;;;;;;;26.05;11.00;;;;;;;-144.05;76.14;57114.34;5092346;28;20036;-78
2024/01/20 00:40:37;;;;;;;22.10;9.63;;;;;;;-144.05;76.12;57124.97;5095327;28;20035;-77
2024/01/20 00:43:03;;;;;;;22.88;10.55;;;;;;;-144.05;76.12;57107.97;5099944;28;20034;-79
2024/01/20 00:45:29;;;;;;;18.45;9.52;;;;;;;-144.05;75.80;57148.31;5091246;28;20020;-79
2024/01/20 00:47:56;;;;;;;20.17;9.82;;;;;;;-144.05;76.16;57122.84;5091911;28;21371;-79
2024/01/20 00:50:23;;;;;;;23.42;10.27;;;;;;;-144.05;76.01;57118.59;5091791;28;20027;-77
2024/01/20 00:52:49;;;;;;;21.38;9.45;;;;;;;-144.05;76.08;57086.72;5090209;28;20020;-79
2024/01/20 00:55:15;;;;;;;17.77;9.73;;;;;;;-144.05;76.08;57154.69;5089991;28;20093;-77
2024/01/20 00:57:42;;;;;;;26.90;10.15;;;;;;;-144.05;76.11;57114.34;5090090;28;20557;-77
2024/01/20 01:00:09;;;;;;;24.65;10.10;;;;;;;-144.05;76.12;57112.22;5094910;28;20059;-76
2024/01/20 01:02:38;;;;;;;21.98;9.43;;;;;;;-144.05;76.25;57099.47;5102712;28;20028;-76
2024/01/20 01:05:05;;;;;;;22.20;10.55;;;;;;;-144.05;76.12;57141.94;5104458;28;20036;-80
2024/01/20 01:07:35;;;;;;;14.82;8.52;;;0.70;99.90;;;-144.05;75.60;57122.84;5119247;28;20062;-81
2024/01/20 01:10:03;;;;;;;21.65;10.07;;;;;;;-144.05;75.69;57127.09;5096194;28;20042;-81
2024/01/20 01:12:30;;;;;;;19.67;9.70;;;;;;;-144.05;76.27;57156.81;5091251;28;20032;-78
2024/01/20 01:14:56;;;;;;;20.13;9.00;;;;;;;-144.05;75.87;57144.06;5090928;28;20125;-79
2024/01/20 01:17:22;;;;;;;27.00;9.85;;;;;;;-144.05;75.62;57099.47;5090396;28;20028;-78
2024/01/20 01:19:49;;;;;;;21.23;10.27;;;;;;;-144.05;75.62;57114.34;5101279;28;20030;-78
2024/01/20 01:22:15;;;;;;;16.45;8.95;;;;;;;-144.05;75.77;57086.72;5101314;28;20024;-77
2024/01/20 01:24:41;;;;;;;25.15;10.40;;;;;;;-144.05;75.79;57152.56;5090031;28;20020;-77
2024/01/20 01:27:07;;;;;;;28.33;10.52;;;;;;;-144.05;75.95;57133.44;5092548;28;20599;-78
2024/01/20 01:29:33;;;;;;;22.77;10.85;;;;;;;-144.05;75.92;57103.72;5096024;28;20482;-79
2024/01/20 01:32:00;;;;;;;22.05;9.70;;;;;;;-144.05;76.35;57120.72;5093397;28;20032;-79
2024/01/20 01:34:26;;;;;;;21.17;9.27;;;;;;;-144.05;75.86;57141.94;5092200;28;20489;-79
2024/01/20 01:36:53;;;;;;;21.02;10.68;;;;;;;-144.05;75.76;57112.22;5096061;28;20107;-77
2024/01/20 01:39:21;;;;;;;20.00;9.88;;;;;;;-144.05;75.65;57127.09;5091893;28;20100;-76
2024/01/20 01:41:47;;;;;;;24.00;9.70;;;;;;;-144.05;75.67;57110.09;5092949;28;20046;-79
2024/01/20 01:44:13;;;;;;;21.60;8.85;;;;;;;-144.05;75.84;57095.22;5092666;28;20031;-78
2024/01/20 01:46:40;;;;;;;23.20;10.45;;;;;;;-144.05;75.72;57078.22;5092616;28;20031;-77
2024/01/20 01:49:07;;;;;;;18.90;9.40;;;;;;;-144.05;76.28;57097.34;5091310;28;20064;-78
2024/01/20 01:51:34;;;;;;;22.85;10.23;;;;;;;-144.05;76.64;57129.22;5092574;28;20165;-78
2024/01/20 01:54:03;;;;;;;20.40;10.10;;;-2.30;99.90;;;-144.05;76.59;57120.72;5092323;28;20220;-76
2024/01/20 01:56:30;;;;;;;22.25;9.63;;;0.00;99.90;;;-144.05;76.12;57148.31;5093220;28;20020;-78
2024/01/20 01:58:58;;;;;;;20.33;10.73;;;-1.50;99.90;;;-144.05;76.22;57120.72;5093050;28;20056;-78
2024/01/20 02:01:24;;;;;;;29.27;10.30;;;;;;;-144.05;76.37;57116.47;5107104;28;20024;-78
2024/01/20 02:03:51;;;;;;;19.42;10.20;;;;;;;-144.05;76.26;57146.19;5094019;28;20024;-75
2024/01/20 02:06:18;;;;;;;23.58;9.68;;;;;;;-144.05;75.80;57133.44;5099905;28;20115;-78
2024/01/20 02:08:44;;;;;;;31.02;13.18;;;;;;;-144.05;75.93;57118.59;5101694;28;20024;-78
2024/01/20 02:11:11;;;;;;;20.58;10.68;;;;;;;-144.05;76.24;57124.97;5099100;28;20032;-76
2024/01/20 02:13:43;;;;;;;18.95;9.32;;;-2.10;99.90;;;-144.05;76.37;57139.81;5100855;28;20050;-78
2024/01/20 02:16:09;;;;;;;19.20;9.13;;;;;;;-144.05;76.10;57141.94;5111583;28;20166;-75
2024/01/20 02:18:35;;;;;;;23.75;10.27;;;;;;;-144.05;76.39;57112.22;5110045;28;20003;-77
2024/01/20 02:21:04;;;;;;;21.60;9.85;;;;;;;-144.05;76.62;57124.97;5093120;28;20085;-76
2024/01/20 02:23:39;;;;;;;24.88;10.73;;;;;;;-144.05;76.16;57095.22;5099855;28;20035;-76
2024/01/20 02:26:05;;;;;;;20.60;9.70;;;;;;;-144.05;75.94;57116.47;5098541;28;20373;-78
2024/01/20 02:28:32;;;;;;;19.98;10.23;;;;;;;-144.05;76.04;57137.69;5094213;28;20039;-76
2024/01/20 02:30:58;;;;;;;25.30;9.93;;;;;;;-144.05;76.00;57131.31;5095854;28;20028;-78
2024/01/20 02:33:25;;;;;;;24.75;10.18;;;;;;;-144.05;75.83;57118.59;5095699;28;20097;-76
2024/01/20 02:35:51;;;;;;;24.38;9.45;;;;;;;-144.05;76.52;57152.56;5094197;28;20071;-75
2024/01/20 02:38:17;;;;;;;19.35;9.50;;;;;;;-144.05;76.17;57133.44;5094791;28;20111;-75
2024/01/20 02:40:44;;;;;;;24.40;9.80;;;;;;;-144.05;75.65;57133.44;5095067;28;20468;-77
2024/01/20 02:43:10;;;;;;;25.77;10.23;;;;;;;-144.05;75.83;57158.94;5093709;28;20040;-77
2024/01/20 02:45:36;;;;;;;28.13;10.13;;;;;;;-144.05;75.52;57133.44;5093438;28;20103;-77
2024/01/20 02:48:02;;;;;;;21.08;9.73;;;;;;;-144.05;75.84;57133.44;5094853;28;20520;-76
2024/01/20 02:50:30;;;;;;;24.50;9.70;;;;;;;-144.05;75.84;57137.69;5094835;28;20054;-77
2024/01/20 02:52:56;;;;;;;24.63;9.85;;;;;;;-144.05;75.92;57137.69;5094761;28;20131;-76
2024/01/20 02:55:22;;;;;;;19.70;9.88;;;;;;;-144.05;75.30;57133.44;5094744;28;20464;-77
2024/01/20 02:57:48;;;;;;;23.05;9.50;;;;;;;-144.05;75.79;57127.09;5094903;28;20496;-78
2024/01/20 03:00:15;;;;;;;19.85;9.45;;;;;;;-144.05;75.60;57141.94;5094804;28;20032;-75
2024/01/20 03:02:41;;;;;;;19.90;10.45;;;;;;;-144.05;75.42;57135.56;5095052;28;20497;-78
2024/01/20 03:05:07;;;;;;;24.30;10.75;;;;;;;-144.05;75.70;57139.81;5093992;28;20040;-77
2024/01/20 03:07:34;;;;;;;24.73;9.80;;;;;;;-144.05;75.56;57105.84;5094937;28;20043;-76
2024/01/20 03:10:00;;;;;;;21.42;9.85;;;;;;;-144.05;75.77;57120.72;5094806;28;20028;-76
2024/01/20 03:12:26;;;;;;;17.38;9.77;;;;;;;-144.05;75.53;57107.97;5094070;28;20032;-78
2024/01/20 03:14:53;;;;;;;21.15;8.75;;;;;;;-144.05;75.58;57082.47;5093488;28;20388;-77
2024/01/20 03:17:19;;;;;;;22.17;9.93;;;;;;;-144.05;75.61;57122.84;5093117;28;20127;-77
2024/01/20 03:19:45;;;;;;;25.50;10.40;;;;;;;-144.05;75.75;57086.72;5095329;28;20444;-76
2024/01/20 03:22:11;;;;;;;21.33;10.98;;;;;;;-144.05;75.31;57135.56;5094932;28;20140;-79
2024/01/20 03:24:38;;;;;;;20.25;8.77;;;;;;;-144.05;75.26;57116.47;5094329;28;20039;-77
2024/01/20 03:27:04;;;;;;;22.85;10.75;;;;;;;-144.05;75.75;57144.06;5094193;28;20382;-76
2024/01/20 03:29:30;;;;;;;24.13;10.27;;;;;;;-144.05;75.33;57137.69;5093506;28;20432;-76
2024/01/20 03:31:57;;;;;;;27.40;10.57;;;;;;;-144.05;74.96;57139.81;5093891;28;20082;-77
2024/01/20 03:34:23;;;;;;;22.85;10.15;;;;;;;-144.05;75.14;57097.34;5092374;28;20036;-78
2024/01/20 03:36:49;;;;;;;22.95;9.90;;;;;;;-144.05;75.42;57120.72;5095199;28;20031;-77
2024/01/20 03:39:16;;;;;;;23.73;10.07;;;;;;;-144.05;75.22;57131.31;5094382;28;20028;-76
2024/01/20 03:41:42;;;;;;;20.02;9.13;;;;;;;-144.05;74.98;57129.22;5093479;28;20413;-76
2024/01/20 03:44:08;;;;;;;20.70;9.88;;;;;;;-144.05;75.13;57137.69;5091374;28;20405;-77
2024/01/20 03:46:34;;;;;;;18.67;9.63;;;;;;;-144.05;75.20;57129.22;5092222;28;20396;-77
2024/01/20 03:49:00;;;;;;;24.13;9.93;;;;;;;-144.05;74.95;57120.72;5093615;28;20043;-78
2024/01/20 03:51:27;;;;;;;20.00;10.07;;;;;;;-144.05;74.72;57127.09;5093734;28;20044;-75
2024/01/20 03:53:54;;;;;;;21.17;10.15;;;;;;;-144.05;74.80;57120.72;5117465;28;20052;-77
2024/01/20 03:56:20;;;;;;;19.50;9.80;;;;;;;-144.05;75.28;57150.44;5115025;28;20056;-77
2024/01/20 03:58:46;;;;;;;19.05;10.15;;;;;;;-144.05;75.53;57107.97;5093252;28;20050;-77
2024/01/20 04:01:12;;;;;;;23.67;9.35;;;;;;;-144.05;75.49;57131.31;5092249;28;20024;-77
2024/01/20 04:03:38;;;;;;;18.52;9.30;;;;;;;-144.05;75.46;57150.44;5093097;28;20141;-77
2024/01/20 04:06:05;;;;;;;26.45;9.50;;;;;;;-144.05;75.82;57129.22;5092297;28;20024;-77
2024/01/20 04:08:31;;;;;;;20.67;9.30;;;;;;;-144.05;75.11;57135.56;5093185;28;20031;-77
2024/01/20 04:10:58;;;;;;;20.33;9.23;;;;;;;-144.05;75.52;57107.97;5093259;28;20068;-77
2024/01/20 04:13:24;;;;;;;17.63;8.60;;;;;;;-144.05;74.83;57107.97;5093070;28;20047;-76
2024/01/20 04:15:52;;;;;;;18.80;8.23;;;;;;;-144.05;74.59;57133.44;5095861;28;20028;-79
2024/01/20 04:18:18;;;;;;;21.00;9.52;;;;;;;-144.05;74.73;57127.09;5098570;28;20039;-78
2024/01/20 04:20:44;;;;;;;15.75;8.80;;;;;;;-144.05;74.45;57150.44;5093694;28;20111;-76
2024/01/20 04:23:10;;;;;;;24.80;10.02;;;;;;;-144.05;74.53;57097.34;5092960;28;20128;-76
2024/01/20 04:25:37;;;;;;;22.25;9.77;;;;;;;-144.05;74.63;57146.19;5092548;28;20047;-77
2024/01/20 04:28:03;;;;;;;19.85;9.05;;;;;;;-144.05;75.00;57110.09;5093589;28;20469;-77
2024/01/20 04:30:29;;;;;;;19.45;9.18;;;;;;;-144.05;74.90;57139.81;5091829;28;20523;-76
2024/01/20 04:32:56;;;;;;;26.05;10.05;;;;;;;-144.05;74.72;57144.06;5091971;28;20109;-77
2024/01/20 04:35:22;;;;;;;21.48;10.40;;;;;;;-144.05;74.64;57124.97;5099241;28;20034;-77
2024/01/20 04:37:48;;;;;;;20.27;9.90;;;;;;;-144.05;74.60;57141.94;5094876;28;20032;-77
2024/01/20 04:40:14;;;;;;;19.88;9.43;;;;;;;-144.05;75.05;57139.81;5108798;28;20118;-78
2024/01/20 04:42:40;;;;;;;21.95;10.05;;;;;;;-144.05;74.91;57144.06;5099206;28;20211;-81
2024/01/20 04:45:08;;;;;;;23.45;10.00;;;;;;;-144.05;75.46;57107.97;5091855;28;20390;-78
2024/01/20 04:47:34;;;;;;;22.90;10.15;;;;;;;-144.05;74.88;57103.72;5093428;28;20028;-77
2024/01/20 04:50:00;;;;;;;20.98;9.93;;;;;;;-144.05;74.96;57161.06;5094503;28;20023;-78
2024/01/20 04:52:26;;;;;;;21.83;9.80;;;;;;;-144.05;74.94;57110.09;5097416;28;20024;-78
2024/01/20 04:54:53;;;;;;;17.58;8.63;;;;;;;-144.05;74.68;57139.81;5094131;28;20020;-76
2024/01/20 04:57:21;;;;;;;21.00;9.65;;;;;;;-144.05;75.34;57154.69;5094998;28;20028;-75
2024/01/20 04:59:47;;;;;;;18.27;9.38;;;;;;;-144.05;75.30;57095.22;5094798;28;20106;-76
2024/01/20 05:02:14;;;;;;;19.42;9.48;;;;;;;-144.05;75.28;57124.97;5096171;28;20028;-78
2024/01/20 05:04:40;;;;;;;21.17;10.10;;;;;;;-144.05;74.90;57141.94;5094966;28;20274;-76
2024/01/20 05:07:06;;;;;;;24.80;10.32;;;;;;;-144.05;75.08;57137.69;5093176;28;20036;-77
2024/01/20 05:09:33;;;;;;;21.65;9.93;;;;;;;-144.05;74.96;57088.84;5093614;28;20052;-76
2024/01/20 05:11:59;;;;;;;22.95;9.25;;;;;;;-144.05;74.70;57178.06;5113566;28;20028;-77
2024/01/20 05:14:25;;;;;;;20.48;9.65;;;;;;;-144.05;74.50;57114.34;5121417;28;20035;-79
2024/01/20 05:16:51;;;;;;;24.67;9.55;;;;;;;-144.05;74.22;57122.84;5118914;28;20012;-79
2024/01/20 05:19:17;;;;;;;22.88;9.60;;;;;;;-144.05;74.83;57148.31;5109799;28;20024;-76
2024/01/20 05:21:44;;;;;;;21.80;9.52;;;;;;;-144.05;75.36;57131.31;5099890;28;20036;-77
2024/01/20 05:24:10;;;;;;;18.00;9.50;;;;;;;-144.05;75.27;57141.94;5098611;28;20066;-76
2024/01/20 05:26:38;;;;;;;19.02;9.10;;;;;;;-144.05;74.93;57122.84;5092391;28;20323;-77
2024/01/20 05:29:05;;;;;;;23.25;10.10;;;;;;;-144.05;74.99;57124.97;5091177;28;20028;-75
2024/01/20 05:31:31;;;;;;;22.92;9.70;;;;;;;-144.05;75.48;57154.69;5091606;28;20041;-77
2024/01/20 05:34:00;;;;;;;21.52;9.27;;;-3.60;99.90;;;-144.05;75.37;57133.44;5101453;28;20065;-77
2024/01/20 05:36:27;;;;;;;21.42;10.27;;;;;;;-144.05;75.51;57158.94;5095827;28;20035;-77
2024/01/20 05:38:53;;;;;;;20.42;9.73;;;;;;;-144.05;75.57;57156.81;5093209;28;20023;-77
2024/01/20 05:41:19;;;;;;;20.45;8.50;;;;;;;-144.05;75.29;57165.31;5092782;28;20028;-76
2024/01/20 05:43:46;;;;;;;19.42;8.57;;;;;;;-144.05;75.31;57161.06;5093830;28;20074;-76
2024/01/20 05:46:12;;;;;;;22.77;9.48;;;;;;;-144.05;75.52;57127.09;5092707;28;20109;-77
2024/01/20 05:48:38;;;;;;;20.45;9.20;;;;;;;-144.05;75.68;57165.31;5093582;28;20028;-78
2024/01/20 05:51:05;;;;;;;20.02;9.55;;;;;;;-144.05;75.88;57133.44;5099809;28;20060;-78
2024/01/20 05:53:31;;;;;;;20.92;10.90;;;;;;;-144.05;75.93;57161.06;5093652;28;20081;-77
2024/01/20 05:55:57;;;;;;;20.75;9.95;;;;;;;-144.05;75.55;57171.69;5100653;28;20051;-79
2024/01/20 05:58:23;;;;;;;18.40;9.98;;;;;;;-144.05;75.48;57141.94;5094123;28;20036;-76
2024/01/20 06:00:50;;;;;;;18.38;8.70;;;;;;;-144.05;75.54;57088.84;5093853;28;20028;-76
2024/01/20 06:03:16;;;;;;;19.95;9.38;;;;;;;-144.05;76.23;57146.19;5093036;28;20485;-78
2024/01/20 06:05:42;;;;;;;17.67;9.07;;;-2.90;99.90;;;-144.05;76.11;57135.56;5098641;28;20042;-78
2024/01/20 06:08:09;;;;;;;19.95;9.23;;;;;;;-144.05;75.89;57133.44;5108742;28;20040;-78
2024/01/20 06:10:35;;;;;;;24.35;8.77;;;;;;;-144.05;75.73;57129.22;5097959;28;20406;-78
2024/01/20 06:13:01;;;;;;;19.27;9.27;;;;;;;-144.05;75.95;57144.06;5102333;28;20508;-78
2024/01/20 06:15:28;;;;;;;19.48;9.43;;;;;;;-144.05;75.94;57139.81;5095149;28;20032;-77
2024/01/20 06:17:54;;;;;;;19.73;9.30;;;;;;;-144.05;75.76;57135.56;5097400;28;20052;-76
2024/01/20 06:20:20;;;;;;;22.27;9.45;;;;;;;-144.05;75.57;57116.47;5096538;28;20036;-76
2024/01/20 06:22:46;;;;;;;19.05;8.50;;;;;;;-144.05;75.68;57156.81;5096427;28;20060;-75
2024/01/20 06:25:13;;;;;;;19.70;9.25;;;;;;;-144.05;75.76;57158.94;5094799;28;20043;-75
2024/01/20 06:27:39;;;;;;;20.42;9.82;;;;;;;-144.05;75.60;57154.69;5095998;28;20067;-78
2024/01/20 06:30:06;;;;;;;18.95;8.48;;;;;;;-144.05;75.69;57150.44;5096599;28;20524;-77
2024/01/20 06:32:32;;;;;;;20.98;9.15;;;;;;;-144.05;76.37;57146.19;5096563;28;20032;-76
2024/01/20 06:34:59;;;;;;;23.02;10.57;;;;;;;-144.05;76.55;57133.44;5097000;28;20438;-73
2024/01/20 06:37:25;;;;;;;25.50;9.35;;;;;;;-144.05;76.17;57131.31;5096449;28;20036;-76
2024/01/20 06:39:51;;;;;;;20.05;9.25;;;;;;;-144.05;76.36;57165.31;5103349;28;20554;-78
2024/01/20 06:42:17;;;;;;;22.15;8.75;;;;;;;-144.05;76.54;57152.56;5116556;28;20020;-78
2024/01/20 06:44:43;;;;;;;20.92;9.57;;;;;;;-144.05;76.57;57137.69;5108475;28;20207;-78
2024/01/20 06:47:11;;;;;;;18.85;8.93;;;;;;;-144.05;76.27;57148.31;5096610;28;20108;-79
2024/01/20 06:49:40;;;;;;;23.45;9.40;;;;;;;-144.05;76.28;57135.56;5096577;28;20139;-78
2024/01/20 06:52:07;;;;;;;22.23;9.82;;;;;;;-144.05;76.05;57114.34;5096522;28;20036;-77
2024/01/20 06:54:33;;;;;;;18.05;8.63;;;;;;;-144.05;75.64;57107.97;5096321;28;20035;-78
2024/01/20 06:56:59;;;;;;;18.98;8.57;;;;;;;-144.05;76.10;57099.47;5097499;28;20115;-78
2024/01/20 06:59:25;;;;;;;22.02;8.27;;;;;;;-144.05;75.99;57139.81;5096902;28;20032;-79
2024/01/20 07:01:52;;;;;;;17.83;9.10;;;;;;;-144.05;76.04;57141.94;5093131;28;20104;-79
2024/01/20 07:04:18;;;;;;;19.98;9.25;;;;;;;-144.05;75.68;57154.69;5101508;28;20134;-78
2024/01/20 07:06:45;;;;;;;17.15;8.27;;;;;;;-144.05;75.83;57158.94;5098872;28;20092;-77
2024/01/20 07:09:11;;;;;;;19.52;9.23;;;;;;;-144.05;76.27;57131.31;5093032;28;20028;-79
2024/01/20 07:11:38;;;;;;;25.75;9.52;;;;;;;-144.05;76.36;57148.31;5105604;28;20031;-77
2024/01/20 07:14:04;;;;;;;16.70;9.23;;;;;;;-144.05;75.87;57154.69;5097351;28;20138;-77
2024/01/20 07:16:31;;;;;;;22.17;10.57;;;;;;;-144.05;76.25;57180.19;5112768;28;20101;-78
2024/01/20 07:18:57;;;;;;;18.88;8.80;;;;;;;-144.05;76.07;57135.56;5097786;28;20050;-76
2024/01/20 07:21:23;;;;;;;20.20;10.27;;;;;;;-144.05;76.46;57131.31;5105010;28;20061;-77
2024/01/20 07:23:50;;;;;;;23.65;9.18;;;;;;;-144.05;76.31;57154.69;5098929;28;20031;-77
2024/01/20 07:26:16;;;;;;;20.42;8.55;;;;;;;-144.05;75.82;57135.56;5102168;28;20035;-77
2024/01/20 07:28:44;;;;;;;16.83;7.90;;;;;;;-144.05;75.94;57099.47;5103650;28;20031;-75
2024/01/20 07:31:11;;;;;;;18.98;8.68;;;;;;;-144.05;75.99;57165.31;5110246;28;20035;-76
2024/01/20 07:33:38;;;;;;;19.27;8.57;;;;;;;-144.05;75.47;57129.22;5097262;28;20392;-77
2024/01/20 07:36:06;;;;;;;18.15;8.98;;;;;;;-144.05;75.58;57131.31;5099773;28;20049;-77
2024/01/20 07:38:32;;;;;;;16.92;8.55;;;;;;;-144.05;75.25;57141.94;5096448;28;20032;-75
2024/01/20 07:40:59;;;;;;;19.08;8.40;;;;;;;-144.05;74.70;57133.44;5095149;28;20119;-75
2024/01/20 07:43:25;;;;;;;16.80;8.50;;;;;;;-144.05;74.59;57118.59;5096776;28;20110;-77
2024/01/20 07:45:54;;;;;;;19.48;9.32;;;;;;;-144.05;74.76;57107.97;5095932;28;20062;-76
2024/01/20 07:48:21;;;;;;;19.55;9.18;;;;;;;-144.05;74.86;57135.56;5095985;28;20039;-76
2024/01/20 07:50:48;;;;;;;21.25;9.35;;;;;;;-144.05;74.44;57073.97;5096101;28;20039;-78
2024/01/20 07:53:14;;;;;;;21.15;8.27;;;;;;;-144.05;73.77;57129.22;5095951;28;20130;-79
2024/01/20 07:55:40;;;;;;;17.83;8.23;;;;;;;-144.05;73.29;57090.97;5093956;28;20032;-76
2024/01/20 07:58:06;;;;;;;16.00;8.02;;;;;;;-144.05;73.06;57099.47;5095583;28;20107;-78
2024/01/20 08:00:33;;;;;;;19.40;7.60;;;;;;;-144.05;73.10;57124.97;5094710;28;20385;-77
2024/01/20 08:02:59;;;;;;;18.10;7.93;;;;;;;-144.05;72.58;57131.31;5095212;28;20024;-75
2024/01/20 08:05:25;;;;;;;15.75;8.43;;;;;;;-144.05;72.53;57135.56;5094739;28;20100;-77
2024/01/20 08:07:51;;;;;;;14.85;7.68;;;;;;;-144.05;72.01;57120.72;5095230;28;20880;-77
2024/01/20 08:10:17;;;;;;;16.85;8.38;;;;;;;-144.05;71.84;57120.72;5094096;28;20039;-78
2024/01/20 08:12:44;;;;;;;16.88;7.55;;;;;;;-144.05;71.17;57156.81;5095534;28;20032;-77
2024/01/20 08:15:10;;;;;;;16.63;8.15;;;;;;;-144.05;71.01;57093.09;5092305;28;20039;-77
2024/01/20 08:17:36;;;;;;;16.00;8.38;;;;;;;-144.05;70.64;57148.31;5094822;28;20023;-76
2024/01/20 08:20:03;;;;;;;16.80;8.90;;;;;;;-144.05;69.78;57116.47;5094562;28;20035;-77
2024/01/20 08:22:29;;;;;;;21.00;8.20;;;;;;;-144.05;69.79;57086.72;5095647;28;20119;-75
2024/01/20 08:24:56;;;;;;;14.35;6.90;;;;;;;-144.05;69.40;57097.34;5095015;28;20070;-76
2024/01/20 08:27:22;;;;;;;15.48;7.75;;;;;;;-144.05;68.83;57069.72;5094733;28;20024;-76
2024/01/20 08:29:48;;;;;;;13.57;7.32;;;;;;;-144.05;68.77;57101.59;5092878;28;20024;-79
2024/01/20 08:32:14;;;;;;;16.52;7.32;;;;;;;-144.05;68.53;57093.09;5094706;28;20024;-80
2024/01/20 08:34:41;;;;;;;15.98;7.55;;;;;;;-144.05;68.28;57103.72;5093434;28;20032;-77
2024/01/20 08:37:07;;;;;;;16.77;7.88;;;;;;;-144.05;67.24;57099.47;5094742;28;20031;-79
2024/01/20 08:39:33;;;;;;;16.80;7.00;;;;;;;-144.05;67.50;57099.47;5092825;28;20130;-78
2024/01/20 08:41:59;;;;;;;12.70;7.07;;;;;;;-144.05;67.37;57086.72;5093087;28;20016;-79
2024/01/20 08:44:26;;;;;;;17.00;7.75;;;;;;;-144.05;66.69;57071.84;5092802;28;20386;-78
2024/01/20 08:46:52;;;;;;;15.02;7.28;;;;;;;-144.05;66.70;57086.72;5110228;28;20506;-75
2024/01/20 08:49:18;;;;;;;19.38;8.10;;;;;;;-144.05;66.24;57124.97;5094261;28;20031;-79
2024/01/20 08:51:45;;;;;;;13.85;7.30;;;;;;;-144.05;66.66;57107.97;5093126;28;20097;-77
2024/01/20 08:54:11;;;;;;;12.02;6.38;;;;;;;-144.05;67.18;57131.31;5095176;28;20054;-79
2024/01/20 08:56:37;;;;;;;14.57;6.78;;;;;;;-144.05;67.02;57095.22;5094808;28;20024;-79
2024/01/20 08:59:03;;;;;;;14.68;8.43;;;;;;;-144.05;66.37;57093.09;5094909;28;20031;-77
2024/01/20 09:01:30;;;;;;;14.05;6.47;;;;;;;-144.05;66.27;57112.22;5095214;28;20048;-78
2024/01/20 09:03:56;;;;;;;12.77;6.32;;;;;;;-144.05;65.26;57065.47;5096236;28;20028;-76
2024/01/20 09:06:22;;;;;;;16.17;7.88;;;;;;;-144.05;64.97;57065.47;5116891;28;20024;-79
2024/01/20 09:08:49;;;;;;;12.60;6.60;;;;;;;-144.05;64.88;57093.09;5111750;28;20028;-77
2024/01/20 09:11:15;;;;;;;12.80;6.43;;;;;;;-144.05;65.10;57084.59;5103350;28;20032;-78
2024/01/20 09:13:41;;;;;;;15.35;6.18;;;;;;;-144.05;64.62;57061.22;5104465;28;20028;-81
2024/01/20 09:16:09;;;;;;;12.93;7.10;;;;;;;-144.05;63.96;57069.72;5098409;28;20039;-76
2024/01/20 09:18:35;;;;;;;12.93;6.15;;;;;;;-144.05;64.29;57107.97;5101712;28;20132;-78
2024/01/20 09:21:01;;;;;;;13.98;7.63;;;;;;;-144.05;63.69;57065.47;5104525;28;20502;-77
2024/01/20 09:23:27;;;;;;;10.23;6.20;;;;;;;-144.05;63.60;57080.34;5097432;28;20182;-76
2024/01/20 09:25:53;;;;;;;11.30;6.18;;;;;;;-144.05;63.60;57078.22;5092887;28;20035;-78
2024/01/20 09:28:20;;;;;;;13.50;6.43;;;;;;;-144.05;63.04;57086.72;5094345;28;20059;-79
2024/01/20 09:30:46;;;;;;;10.85;5.80;;;;;;;-144.05;62.60;57059.09;5095825;28;20039;-79
2024/01/20 09:33:12;;;;;;;12.93;6.47;;;;;;;-144.05;62.62;57084.59;5105914;28;20036;-78
2024/01/20 09:35:38;;;;;;;10.73;6.10;;;;;;;-144.05;61.73;57065.47;5100091;28;20474;-79
2024/01/20 09:38:05;;;;;;;12.18;6.15;;;;;;;-144.05;61.18;57088.84;5116133;28;20039;-77
2024/01/20 09:40:32;;;;;;;14.93;8.27;;;;;;;-144.05;61.29;57063.34;5094648;28;20032;-75
2024/01/20 09:42:59;;;;;;;16.92;6.53;;;;;;;-144.05;60.82;57073.97;5095956;28;20491;-76
2024/01/20 09:45:25;;;;;;;11.25;5.03;;;;;;;-144.05;60.74;57063.34;5096904;28;20532;-77
2024/01/20 09:47:52;;;;;;;12.75;6.13;;;;;;;-144.05;60.45;57052.75;5096046;28;20028;-77
2024/01/20 09:50:19;;;;;;;11.82;6.00;;;;;;;-144.05;60.76;57033.63;5097110;28;20085;-76
2024/01/20 09:53:01;;;;;;;10.38;5.70;;;;;;;-144.05;61.31;57050.63;5097045;28;20035;-76
2024/01/20 09:55:28;;;;;;;13.13;5.85;;;;;;;-144.05;61.01;57084.59;5097946;28;20119;-77
2024/01/20 09:57:57;;;;;;;11.38;5.30;;;;;;;-144.05;60.54;57067.59;5098351;28;20032;-77
2024/01/20 10:00:24;;;;;;;11.40;5.32;;;2.20;99.90;;;-144.05;61.42;57082.47;5098238;28;20035;-77
2024/01/20 10:02:50;;;;;;;11.13;5.18;;;;;;;-144.05;60.86;57095.22;5098122;28;20052;-75
2024/01/20 10:05:23;;;;;;;10.63;5.88;;;;;;;-144.05;61.01;57044.25;5097023;28;20040;-78
2024/01/20 10:07:49;;;;;;;9.45;5.40;;;;;;;-144.05;60.85;57080.34;5097339;28;20024;-78
2024/01/20 10:10:20;;;;;;;11.10;5.35;;;;;;;-144.05;60.49;57033.63;5095998;28;20443;-78
2024/01/20 10:13:04;;;;;;;10.10;5.55;;;1.70;99.90;;;-144.05;60.94;57052.75;5096900;28;20073;-80
2024/01/20 10:15:32;;;;;;;8.48;4.65;;;;;;;-144.05;59.85;57050.63;5097985;28;20043;-79
2024/01/20 10:17:59;;;;;;;11.80;4.95;;;;;;;-144.05;59.73;57059.09;5095792;28;20112;-76
2024/01/20 10:20:34;;;;;;;13.93;6.57;;;1.50;99.90;;;-144.05;60.29;57095.22;5096710;28;20036;-76
2024/01/20 10:23:06;;;;;;;11.20;5.35;;;2.50;99.90;;;-144.05;60.78;57078.22;5096289;28;20389;-75
2024/01/20 10:25:33;;;;;;;9.70;4.93;;;;;;;-144.05;59.45;57050.63;5096133;28;20035;-79
2024/01/20 10:27:59;;;;;;;11.05;5.03;;;;;;;-144.05;59.28;57031.50;5104609;28;20046;-78
2024/01/20 10:30:26;;;;;;;10.38;5.28;;;;;;;-144.05;58.96;57095.22;5095224;28;20050;-78
2024/01/20 10:32:53;;;;;;;10.05;5.20;;;;;;;-144.05;58.94;57071.84;5104388;28;20476;-78
2024/01/20 10:35:19;;;;;;;9.75;4.95;;;;;;;-144.05;59.41;57056.97;5095837;28;20725;-79
2024/01/20 10:37:47;;;;;;;10.75;5.72;;;;;;;-144.05;59.36;57027.25;5094461;28;20032;-75
2024/01/20 10:40:15;;;;;;;9.88;5.68;;;1.90;99.90;;;-144.05;59.55;57078.22;5096155;28;20032;-78
2024/01/20 10:42:46;;;;;;;12.05;6.70;;;1.60;99.90;;;-144.05;59.80;57065.47;5094664;28;20420;-76
2024/01/20 10:45:19;;;;;;;10.63;5.95;;;;;;;-144.05;59.33;57025.13;5095797;28;20073;-76
2024/01/20 10:48:14;;;;;;;12.50;5.45;;;3.00;99.90;;;-144.05;57.49;57048.50;5095592;28;20028;-76
2024/01/20 10:50:51;;;;;;;9.27;5.30;;;;;;;-144.05;57.69;57044.25;5094515;28;20078;-75
2024/01/20 10:53:18;;;;;;;11.35;4.97;;;;;;;-144.05;57.17;57035.75;5100565;28;20032;-76
2024/01/20 10:55:46;;;;;;;10.23;5.20;;;;;;;-144.05;56.96;57031.50;5096819;28;20039;-76
2024/01/20 10:58:19;;;;;;;11.02;4.97;;;;;;;-144.05;56.67;57073.97;5095040;28;20028;-75
2024/01/20 11:00:46;;;;;;;8.55;4.68;;;;;;;-144.05;57.00;57054.88;5104107;28;20046;-77
2024/01/20 11:03:13;;;;;;;8.88;4.78;;;;;;;-144.05;56.91;57044.25;5095666;28;20115;-75